Time;durP1;ratioP1;P1;durP2;ratioP2;P2;SDS_P1;SDS_P2;PMS_P1;PMS_P2;Temp;Humidity;BMP_temperature;BMP_pressure;BME280_temperature;BME280_humidity;BME280_pressure;Samples;Min_cycle;Max_cycle;Signal;HPM_P1;HPM_P2
2023/10/25 04:07:08;;;;;;;0.30;0.30;;;9.30;99.90;;;;;;4996161;23;20234;-61
2023/10/25 04:09:33;;;;;;;0.50;0.50;;;9.30;99.90;;;;;;4997695;28;20163;-64
2023/10/25 04:11:59;;;;;;;0.30;0.30;;;9.20;99.90;;;;;;4998027;28;20545;-64
2023/10/25 04:14:24;;;;;;;0.30;0.27;;;9.20;99.90;;;;;;4996663;28;20168;-63
2023/10/25 04:16:50;;;;;;;0.30;0.30;;;9.20;99.90;;;;;;4996567;28;20568;-64
2023/10/25 04:19:16;;;;;;;0.30;0.30;;;9.10;99.90;;;;;;4997270;28;20184;-63
2023/10/25 04:21:41;;;;;;;0.30;0.30;;;9.10;99.90;;;;;;4997119;28;20211;-62
2023/10/25 04:24:07;;;;;;;0.30;0.30;;;9.10;99.90;;;;;;4997434;28;20258;-63
2023/10/25 04:26:33;;;;;;;0.30;0.30;;;9.10;99.90;;;;;;4997130;28;20195;-62
2023/10/25 04:28:58;;;;;;;0.30;0.30;;;9.10;99.90;;;;;;4997529;28;20175;-63
2023/10/25 04:31:24;;;;;;;0.30;0.30;;;9.10;99.90;;;;;;4997462;28;20206;-62
2023/10/25 04:33:49;;;;;;;0.30;0.30;;;9.10;99.90;;;;;;4997274;28;20230;-63
2023/10/25 04:36:15;;;;;;;0.30;0.30;;;9.20;99.90;;;;;;4995373;28;20199;-63
2023/10/25 04:38:41;;;;;;;0.30;0.20;;;9.20;99.90;;;;;;4997286;28;20187;-62
2023/10/25 04:41:07;;;;;;;0.35;0.35;;;9.20;99.90;;;;;;4996753;28;20673;-64
2023/10/25 04:43:33;;;;;;;0.30;0.30;;;9.10;99.90;;;;;;4997235;28;20191;-63
2023/10/25 04:46:00;;;;;;;0.30;0.20;;;9.10;99.90;;;;;;4996706;28;20249;-63
2023/10/25 04:48:25;;;;;;;0.30;0.30;;;9.10;99.90;;;;;;4997211;28;20258;-63
2023/10/25 04:50:51;;;;;;;0.30;0.30;;;9.00;99.90;;;;;;4996955;28;20935;-63
2023/10/25 04:53:16;;;;;;;0.30;0.20;;;9.00;99.90;;;;;;4996909;28;20179;-62
2023/10/25 04:55:46;;;;;;;0.30;0.20;;;9.00;99.90;;;;;;4996360;28;20688;-64
2023/10/25 04:58:12;;;;;;;0.30;0.30;;;9.00;99.90;;;;;;4996702;28;20180;-65
2023/10/25 05:00:37;;;;;;;0.30;0.30;;;8.90;99.90;;;;;;4992596;28;20538;-63
2023/10/25 05:03:05;;;;;;;0.30;0.27;;;8.90;99.90;;;;;;4977012;28;20418;-64
2023/10/25 05:05:32;;;;;;;0.30;0.30;;;8.90;99.90;;;;;;4976825;28;20180;-63
2023/10/25 05:07:58;;;;;;;0.30;0.30;;;8.80;99.90;;;;;;4977125;28;20582;-63
2023/10/25 05:10:24;;;;;;;0.30;0.30;;;8.80;99.90;;;;;;4977938;28;20307;-63
2023/10/25 05:12:50;;;;;;;0.30;0.30;;;8.80;99.90;;;;;;4996908;28;20214;-62
2023/10/25 05:15:18;;;;;;;0.30;0.30;;;8.80;99.90;;;;;;4996257;28;20205;-64
2023/10/25 05:17:45;;;;;;;0.30;0.30;;;8.80;99.90;;;;;;4996688;28;20167;-64
2023/10/25 05:20:12;;;;;;;0.40;0.40;;;8.80;99.90;;;;;;4995862;28;20180;-64
2023/10/25 05:22:58;;;;;;;0.30;0.30;;;8.90;99.90;;;;;;4994998;28;20231;-62
2023/10/25 05:25:24;;;;;;;0.30;0.28;;;8.90;99.90;;;;;;4995913;28;20210;-63
2023/10/25 05:27:49;;;;;;;0.30;0.30;;;8.90;99.90;;;;;;4996275;28;20163;-63
2023/10/25 05:30:17;;;;;;;0.30;0.30;;;8.90;99.90;;;;;;4996105;28;20415;-63
2023/10/25 05:32:46;;;;;;;0.30;0.25;;;8.90;99.90;;;;;;4996775;28;20411;-64
2023/10/25 05:35:13;;;;;;;0.30;0.20;;;8.90;99.90;;;;;;4995575;28;20207;-60
2023/10/25 05:37:39;;;;;;;0.30;0.30;;;9.00;99.90;;;;;;4996221;28;20709;-64
2023/10/25 05:40:05;;;;;;;0.30;0.30;;;8.90;99.90;;;;;;4996204;28;20254;-62
2023/10/25 05:42:35;;;;;;;0.35;0.35;;;8.90;99.90;;;;;;4976685;28;20803;-62
2023/10/25 05:45:01;;;;;;;0.30;0.30;;;8.80;99.90;;;;;;4976079;28;20247;-63
2023/10/25 05:47:27;;;;;;;0.30;0.30;;;8.80;99.90;;;;;;4985621;28;20183;-60
2023/10/25 05:49:53;;;;;;;0.40;0.40;;;8.90;99.90;;;;;;4978738;28;20280;-63
2023/10/25 05:52:20;;;;;;;0.30;0.30;;;8.90;99.90;;;;;;4980022;28;20418;-62
2023/10/25 05:54:46;;;;;;;0.30;0.30;;;9.00;99.90;;;;;;4995344;28;20652;-61
2023/10/25 05:57:13;;;;;;;0.30;0.30;;;9.10;99.90;;;;;;4995104;28;20296;-62
2023/10/25 05:59:40;;;;;;;0.30;0.30;;;9.10;99.90;;;;;;4995396;28;20179;-62
2023/10/25 06:02:22;;;;;;;0.30;0.30;;;9.20;99.90;;;;;;4994801;28;20203;-62
2023/10/25 06:04:48;;;;;;;0.40;0.40;;;9.20;99.90;;;;;;4995003;28;20608;-63
2023/10/25 06:07:15;;;;;;;0.30;0.30;;;9.30;99.90;;;;;;4993767;28;20191;-62
2023/10/25 06:09:41;;;;;;;0.30;0.30;;;9.30;99.90;;;;;;4994005;28;20588;-64
2023/10/25 06:12:08;;;;;;;0.30;0.30;;;9.20;99.90;;;;;;4993860;28;20184;-64
2023/10/25 06:14:34;;;;;;;0.40;0.40;;;9.20;99.90;;;;;;4993035;28;20183;-63
2023/10/25 06:17:00;;;;;;;0.30;0.30;;;9.20;99.90;;;;;;4976762;28;20668;-63
2023/10/25 06:19:27;;;;;;;0.30;0.25;;;9.10;99.90;;;;;;4994022;28;20645;-63
2023/10/25 06:21:54;;;;;;;0.30;0.30;;;9.10;99.90;;;;;;4990769;28;20207;-68
2023/10/25 06:24:20;;;;;;;0.20;0.20;;;9.10;99.90;;;;;;4993918;28;20258;-65
2023/10/25 06:26:45;;;;;;;0.30;0.30;;;9.10;99.90;;;;;;4987930;28;20266;-68
2023/10/25 06:29:11;;;;;;;0.20;0.20;;;9.10;99.90;;;;;;4969263;28;20426;-63
2023/10/25 06:31:37;;;;;;;0.30;0.20;;;9.10;99.90;;;;;;4958863;28;20172;-66
2023/10/25 06:34:02;;;;;;;0.30;0.30;;;9.10;99.90;;;;;;4993497;28;20183;-63
2023/10/25 06:36:30;;;;;;;0.93;0.93;;;9.10;99.90;;;;;;4994413;28;20199;-63
2023/10/25 06:38:56;;;;;;;0.30;0.22;;;9.20;99.90;;;;;;4994456;28;20258;-65
2023/10/25 06:41:22;;;;;;;0.30;0.20;;;9.30;99.90;;;;;;4976494;28;20302;-63
2023/10/25 06:43:48;;;;;;;0.30;0.30;;;9.40;99.90;;;;;;4991196;28;20426;-64
2023/10/25 06:46:14;;;;;;;0.30;0.30;;;9.40;99.90;;;;;;4975739;28;20450;-64
2023/10/25 06:48:41;;;;;;;0.30;0.30;;;9.50;99.90;;;;;;4992061;28;20537;-62
2023/10/25 06:51:08;;;;;;;0.30;0.30;;;9.50;99.90;;;;;;4977103;28;20908;-62
2023/10/25 06:53:35;;;;;;;0.30;0.30;;;9.50;99.90;;;;;;4977214;28;20207;-64
2023/10/25 06:56:02;;;;;;;0.30;0.30;;;9.50;99.90;;;;;;4994124;28;20194;-63
2023/10/25 06:58:28;;;;;;;0.30;0.30;;;9.50;99.90;;;;;;4994632;28;20172;-68
2023/10/25 07:00:56;;;;;;;0.37;0.37;;;9.40;99.90;;;;;;4976935;28;20203;-64
2023/10/25 07:03:30;;;;;;;0.47;0.47;;;9.50;99.90;;;;;;4974216;28;20419;-65
2023/10/25 07:06:00;;;;;;;0.30;0.20;;;9.50;99.90;;;;;;4976263;28;20230;-67
2023/10/25 07:08:26;;;;;;;0.30;0.30;;;9.70;99.90;;;;;;4994110;28;20164;-64
2023/10/25 07:10:51;;;;;;;0.30;0.30;;;9.80;99.90;;;;;;4994027;28;20242;-65
2023/10/25 07:13:17;;;;;;;0.30;0.30;;;9.90;99.90;;;;;;4993886;28;20171;-65
2023/10/25 07:15:42;;;;;;;0.40;0.40;;;10.10;99.90;;;;;;4993809;28;20226;-65
2023/10/25 07:18:08;;;;;;;0.30;0.30;;;10.30;99.90;;;;;;4994180;28;20208;-64
2023/10/25 07:20:34;;;;;;;0.30;0.30;;;10.60;99.90;;;;;;4994121;28;20539;-66
2023/10/25 07:23:00;;;;;;;0.30;0.30;;;11.00;99.90;;;;;;4976710;28;20189;-65
2023/10/25 07:25:26;;;;;;;0.20;0.20;;;11.20;99.90;;;;;;4993381;28;20603;-65
2023/10/25 07:27:51;;;;;;;0.30;0.30;;;11.50;99.90;;;;;;4993958;28;20386;-65
2023/10/25 07:30:18;;;;;;;0.20;0.20;;;11.80;99.90;;;;;;4976542;28;20232;-66
2023/10/25 07:32:44;;;;;;;0.30;0.30;;;11.90;99.90;;;;;;4994093;28;20173;-65
2023/10/25 07:35:10;;;;;;;0.30;0.30;;;12.00;99.90;;;;;;4993494;28;20462;-64
2023/10/25 07:37:35;;;;;;;0.30;0.30;;;12.00;99.90;;;;;;4993038;28;20212;-64
2023/10/25 07:40:05;;;;;;;0.30;0.30;;;12.10;99.90;;;;;;4975695;28;20629;-65
2023/10/25 07:42:31;;;;;;;0.20;0.20;;;12.30;99.90;;;;;;4993581;28;20206;-65
2023/10/25 07:44:57;;;;;;;0.20;0.20;;;12.80;99.90;;;;;;4993304;28;20962;-65
2023/10/25 07:47:23;;;;;;;0.20;0.20;;;13.60;99.90;;;;;;4976325;28;20401;-62
2023/10/25 07:49:49;;;;;;;0.30;0.30;;;14.60;99.90;;;;;;4993829;28;20442;-62
2023/10/25 07:52:16;;;;;;;0.20;0.20;;;15.50;99.90;;;;;;4993710;28;20393;-63
2023/10/25 07:54:42;;;;;;;0.30;0.20;;;16.40;99.90;;;;;;4993368;28;20172;-62
2023/10/25 07:57:08;;;;;;;0.30;0.30;;;17.20;99.90;;;;;;4994069;28;20752;-62
2023/10/25 07:59:33;;;;;;;0.30;0.30;;;17.90;99.90;;;;;;4993262;28;20404;-64
2023/10/25 08:01:59;;;;;;;0.30;0.30;;;18.50;99.90;;;;;;4993982;28;20671;-63
2023/10/25 08:04:25;;;;;;;0.30;0.20;;;19.00;99.90;;;;;;4993355;28;20225;-63
2023/10/25 08:06:51;;;;;;;0.47;0.47;;;19.40;99.90;;;;;;4993690;28;20239;-66
2023/10/25 08:09:16;;;;;;;0.30;0.20;;;19.10;99.90;;;;;;4993266;28;20404;-66
2023/10/25 08:11:42;;;;;;;0.30;0.30;;;18.40;99.90;;;;;;4993751;28;20222;-65
2023/10/25 08:14:08;;;;;;;0.60;0.60;;;17.80;99.90;;;;;;4993331;28;20222;-65
2023/10/25 08:16:38;;;;;;;0.30;0.30;;;17.10;99.90;;;;;;4975551;28;20271;-66
2023/10/25 08:19:05;;;;;;;0.30;0.30;;;16.50;99.90;;;;;;4993258;28;20187;-67
2023/10/25 08:21:31;;;;;;;0.30;0.30;;;16.10;99.90;;;;;;4993697;28;20439;-65
2023/10/25 08:23:57;;;;;;;0.30;0.30;;;15.80;99.90;;;;;;4975688;28;20934;-66
2023/10/25 08:26:25;;;;;;;0.30;0.20;;;15.60;99.90;;;;;;4993407;28;20229;-64
2023/10/25 08:28:51;;;;;;;0.30;0.30;;;15.50;99.90;;;;;;4993546;28;20172;-66
2023/10/25 08:31:18;;;;;;;0.30;0.30;;;15.40;99.90;;;;;;4993229;28;20439;-65
2023/10/25 08:33:44;;;;;;;0.30;0.27;;;15.30;99.90;;;;;;4993477;28;20415;-65
2023/10/25 08:36:11;;;;;;;0.30;0.30;;;15.10;99.90;;;;;;4992963;28;20893;-65
2023/10/25 08:38:37;;;;;;;0.30;0.30;;;14.90;99.90;;;;;;4986066;28;20432;-65
2023/10/25 08:41:07;;;;;;;0.30;0.30;;;14.70;99.90;;;;;;4977602;28;20456;-64
2023/10/25 08:43:33;;;;;;;0.37;0.37;;;14.50;99.90;;;;;;4976259;28;20219;-65
2023/10/25 08:46:03;;;;;;;0.30;0.20;;;14.30;99.90;;;;;;4989732;28;20506;-67
2023/10/25 08:48:29;;;;;;;0.30;0.20;;;14.20;99.90;;;;;;4997012;28;20828;-63
2023/10/25 08:50:55;;;;;;;0.30;0.20;;;14.20;99.90;;;;;;4996686;28;20779;-63
2023/10/25 08:53:25;;;;;;;0.30;0.30;;;14.10;99.90;;;;;;4996927;28;20423;-63
2023/10/25 08:55:52;;;;;;;0.30;0.30;;;14.10;99.90;;;;;;4996430;28;20436;-63
2023/10/25 08:58:19;;;;;;;0.30;0.30;;;14.10;99.90;;;;;;4996837;28;20739;-64
2023/10/25 09:00:46;;;;;;;0.30;0.30;;;14.10;99.90;;;;;;4995940;28;20488;-64
2023/10/25 09:03:30;;;;;;;0.30;0.30;;;14.10;99.90;;;;;;4992612;28;20415;-62
2023/10/25 09:05:56;;;;;;;0.30;0.20;;;14.00;99.90;;;;;;4988821;28;21040;-63
2023/10/25 09:08:24;;;;;;;0.30;0.30;;;13.90;99.90;;;;;;4977058;28;20499;-65
2023/10/25 09:10:57;;;;;;;0.30;0.30;;;13.90;99.90;;;;;;4977072;28;20985;-64
2023/10/25 09:13:23;;;;;;;0.30;0.30;;;13.90;99.90;;;;;;4978414;28;20419;-65
2023/10/25 09:15:49;;;;;;;0.30;0.30;;;13.90;99.90;;;;;;4978309;28;20416;-63
2023/10/25 09:18:14;;;;;;;0.30;0.30;;;13.70;99.90;;;;;;4996217;28;20380;-64
2023/10/25 09:20:40;;;;;;;0.30;0.30;;;13.70;99.90;;;;;;4996291;28;20266;-67
2023/10/25 09:23:10;;;;;;;0.30;0.20;;;13.70;99.90;;;;;;4978869;28;20466;-64
2023/10/25 09:25:38;;;;;;;1.27;1.27;;;13.70;99.90;;;;;;4995762;28;20187;-63
2023/10/25 09:28:04;;;;;;;0.30;0.20;;;13.70;99.90;;;;;;4978375;28;20506;-64
2023/10/25 09:30:30;;;;;;;0.30;0.30;;;13.60;99.90;;;;;;4996117;28;20924;-63
2023/10/25 09:32:59;;;;;;;0.30;0.20;;;13.60;99.90;;;;;;4996398;28;20377;-66
2023/10/25 09:35:24;;;;;;;0.30;0.30;;;13.70;99.90;;;;;;4994903;28;20473;-64
2023/10/25 09:37:50;;;;;;;0.30;0.30;;;13.70;99.90;;;;;;4995524;28;20422;-68
2023/10/25 09:40:16;;;;;;;0.30;0.30;;;13.70;99.90;;;;;;4978044;28;20190;-64
2023/10/25 09:42:48;;;;;;;0.30;0.30;;;13.70;99.90;;;;;;4995595;28;20202;-65
2023/10/25 09:45:19;;;;;;;0.30;0.30;;;13.60;99.90;;;;;;4986111;28;20441;-64
2023/10/25 09:47:48;;;;;;;0.30;0.30;;;13.50;99.90;;;;;;4996051;28;20396;-63
2023/10/25 09:50:21;;;;;;;0.30;0.30;;;13.30;99.90;;;;;;4973872;28;21009;-62
2023/10/25 09:52:52;;;;;;;0.30;0.20;;;13.20;99.90;;;;;;4976433;28;20414;-62
2023/10/25 09:55:30;;;;;;;2.83;1.50;;;13.00;99.90;;;;;;4975838;28;20481;-62
2023/10/25 09:57:57;;;;;;;0.30;0.30;;;12.90;99.90;;;;;;4980194;28;20444;-62
2023/10/25 10:00:23;;;;;;;0.30;0.30;;;12.90;99.90;;;;;;4994709;28;20426;-62
2023/10/25 10:03:25;;;;;;;0.30;0.20;;;12.80;99.90;;;;;;4995704;28;20474;-63
2023/10/25 10:06:00;;;;;;;0.30;0.30;;;12.80;99.90;;;;;;4991471;28;20201;-63
2023/10/25 10:08:54;;;;;;;0.30;0.20;;;12.70;99.90;;;;;;4995259;28;20827;-63
2023/10/25 10:11:27;;;;;;;0.30;0.30;;;12.80;99.90;;;;;;4995540;28;20749;-62
2023/10/25 10:14:31;;;;;;;0.30;0.30;;;12.90;99.90;;;;;;4994824;28;20441;-70
2023/10/25 10:17:04;;;;;;;0.30;0.20;;;12.90;99.90;;;;;;4994918;28;20433;-62
2023/10/25 10:19:36;;;;;;;0.30;0.30;;;13.00;99.90;;;;;;4994915;28;20434;-62
2023/10/25 10:22:16;;;;;;;0.30;0.30;;;13.00;99.90;;;;;;4995255;28;20461;-63
2023/10/25 10:24:53;;;;;;;0.30;0.30;;;13.00;99.90;;;;;;4990176;28;20512;-63
2023/10/25 10:27:40;;;;;;;0.30;0.20;;;13.00;99.90;;;;;;4973543;28;20935;-63
2023/10/25 10:30:29;;;;;;;0.30;0.30;;;13.00;99.90;;;;;;4995058;28;20387;-63
2023/10/25 10:32:55;;;;;;;0.30;0.20;;;13.10;99.90;;;;;;4973108;28;20848;-63
2023/10/25 10:35:24;;;;;;;0.30;0.20;;;13.20;99.90;;;;;;4994016;28;20779;-63
2023/10/25 10:37:54;;;;;;;0.30;0.30;;;13.30;99.90;;;;;;4994740;28;20788;-63
2023/10/25 10:40:20;;;;;;;0.33;0.30;;;13.40;99.90;;;;;;4995313;28;20410;-64
2023/10/25 10:42:46;;;;;;;0.30;0.30;;;13.50;99.90;;;;;;4994654;28;20871;-62
2023/10/25 10:45:17;;;;;;;0.30;0.30;;;13.60;99.90;;;;;;4989677;28;20207;-63
2023/10/25 10:48:09;;;;;;;0.30;0.30;;;13.60;99.90;;;;;;4994385;28;20174;-64
2023/10/25 10:50:39;;;;;;;0.30;0.30;;;13.80;99.90;;;;;;4994492;28;20393;-63
2023/10/25 10:53:05;;;;;;;0.30;0.20;;;13.90;99.90;;;;;;4994938;28;20378;-65
2023/10/25 10:55:31;;;;;;;0.30;0.27;;;14.00;99.90;;;;;;4972159;28;20446;-67
2023/10/25 10:57:57;;;;;;;0.30;0.20;;;14.10;99.90;;;;;;4994696;28;20263;-65
2023/10/25 11:00:25;;;;;;;0.30;0.30;;;14.20;99.90;;;;;;4972774;28;20270;-62
2023/10/25 11:02:51;;;;;;;0.30;0.30;;;14.30;99.90;;;;;;4992908;28;20443;-62
2023/10/25 11:05:20;;;;;;;0.30;0.30;;;14.40;99.90;;;;;;4994029;28;20416;-64
2023/10/25 11:07:50;;;;;;;0.30;0.30;;;14.50;99.90;;;;;;4975355;28;20435;-64
2023/10/25 11:10:16;;;;;;;0.30;0.20;;;14.60;99.90;;;;;;4980405;28;20739;-61
2023/10/25 11:12:43;;;;;;;0.30;0.20;;;14.70;99.90;;;;;;4994326;28;20470;-62
2023/10/25 11:15:12;;;;;;;0.30;0.30;;;14.80;99.90;;;;;;4993710;28;20431;-63
2023/10/25 11:17:38;;;;;;;0.50;0.47;;;14.80;99.90;;;;;;4992897;28;20397;-62
2023/10/25 11:20:05;;;;;;;0.30;0.30;;;14.90;99.90;;;;;;4993805;28;20429;-62
2023/10/25 11:22:31;;;;;;;0.30;0.30;;;15.00;99.90;;;;;;4976266;28;20872;-62
2023/10/25 11:24:58;;;;;;;0.30;0.30;;;15.10;99.90;;;;;;4975579;28;20473;-64
2023/10/25 11:27:34;;;;;;;0.30;0.20;;;15.10;99.90;;;;;;4992858;28;20972;-63
2023/10/25 11:30:00;;;;;;;0.30;0.20;;;15.20;99.90;;;;;;4994099;28;20717;-62
2023/10/25 11:32:29;;;;;;;0.50;0.50;;;15.20;99.90;;;;;;4993945;28;20392;-64
2023/10/25 11:34:56;;;;;;;0.30;0.30;;;15.30;99.90;;;;;;4993153;28;20204;-63
2023/10/25 11:37:22;;;;;;;0.30;0.27;;;15.40;99.90;;;;;;4994052;28;20386;-64
2023/10/25 11:39:58;;;;;;;0.30;0.23;;;15.50;99.90;;;;;;4993509;28;20428;-64
2023/10/25 11:42:27;;;;;;;0.30;0.30;;;15.70;99.90;;;;;;4989471;28;20466;-64
2023/10/25 11:44:53;;;;;;;0.30;0.20;;;15.90;99.90;;;;;;4993294;28;20429;-64
2023/10/25 11:47:21;;;;;;;0.33;0.33;;;16.00;99.90;;;;;;4993539;28;20769;-64
2023/10/25 11:50:14;;;;;;;0.30;0.30;;;16.10;99.90;;;;;;4993251;28;20741;-64
2023/10/25 11:52:39;;;;;;;0.30;0.30;;;16.30;99.90;;;;;;4990114;28;20404;-63
2023/10/25 11:55:05;;;;;;;0.30;0.30;;;16.40;99.90;;;;;;4993110;28;20490;-69
2023/10/25 11:57:32;;;;;;;0.30;0.20;;;16.50;99.90;;;;;;4975120;28;20189;-65
2023/10/25 11:59:58;;;;;;;0.30;0.20;;;16.60;99.90;;;;;;4993798;28;20898;-63
2023/10/25 12:02:25;;;;;;;0.30;0.30;;;16.60;99.90;;;;;;4993103;28;20471;-63
2023/10/25 12:04:51;;;;;;;0.40;0.40;;;16.60;99.90;;;;;;4975491;28;20440;-65
2023/10/25 12:07:17;;;;;;;0.30;0.30;;;16.80;99.90;;;;;;4993036;28;20437;-63
2023/10/25 12:09:45;;;;;;;0.30;0.30;;;16.90;99.90;;;;;;4993745;28;20802;-64
2023/10/25 12:12:10;;;;;;;0.30;0.20;;;17.00;99.90;;;;;;4993268;28;20452;-65
2023/10/25 12:14:36;;;;;;;0.30;0.30;;;17.20;99.90;;;;;;4995850;28;20452;-64
2023/10/25 12:17:03;;;;;;;0.30;0.20;;;17.30;99.90;;;;;;4997014;28;20602;-64
2023/10/25 12:19:29;;;;;;;0.30;0.27;;;17.40;99.90;;;;;;4997041;28;20762;-64
2023/10/25 12:21:57;;;;;;;0.30;0.30;;;17.40;99.90;;;;;;4996798;28;20462;-64
2023/10/25 12:24:24;;;;;;;0.30;0.30;;;17.40;99.90;;;;;;4995617;28;20488;-65
2023/10/25 12:26:50;;;;;;;0.30;0.20;;;17.40;99.90;;;;;;4996563;28;20475;-65
2023/10/25 12:29:15;;;;;;;0.30;0.20;;;17.30;99.90;;;;;;4996807;28;20417;-64
2023/10/25 12:31:41;;;;;;;0.30;0.30;;;17.30;99.90;;;;;;4983732;28;20674;-66
2023/10/25 12:34:06;;;;;;;0.30;0.30;;;17.20;99.90;;;;;;4995941;28;20186;-67
2023/10/25 12:36:32;;;;;;;0.30;0.20;;;17.10;99.90;;;;;;4973594;28;20217;-66
2023/10/25 12:38:57;;;;;;;0.30;0.30;;;17.00;99.90;;;;;;4976899;28;20171;-66
2023/10/25 12:41:23;;;;;;;0.30;0.20;;;16.90;99.90;;;;;;4977335;28;20199;-66
2023/10/25 12:43:49;;;;;;;0.30;0.20;;;16.90;99.90;;;;;;4977729;28;20166;-68
2023/10/25 12:46:14;;;;;;;0.30;0.30;;;16.90;99.90;;;;;;4976966;28;20188;-67
2023/10/25 12:48:40;;;;;;;0.33;0.33;;;16.90;99.90;;;;;;4977401;28;20189;-68
2023/10/25 12:51:06;;;;;;;0.30;0.30;;;17.00;99.90;;;;;;4976915;28;20175;-67
2023/10/25 12:53:32;;;;;;;0.30;0.30;;;17.00;99.90;;;;;;4977240;28;20189;-67
2023/10/25 12:55:58;;;;;;;0.30;0.30;;;17.00;99.90;;;;;;4976952;28;20447;-69
2023/10/25 12:58:23;;;;;;;0.30;0.30;;;17.00;99.90;;;;;;4977445;28;20418;-67
2023/10/25 13:00:49;;;;;;;0.30;0.30;;;17.00;99.90;;;;;;4977219;28;20226;-67
2023/10/25 13:03:15;;;;;;;0.30;0.30;;;17.00;99.90;;;;;;4977225;28;20175;-67
2023/10/25 13:05:40;;;;;;;0.30;0.20;;;16.90;99.90;;;;;;4976661;28;20197;-69
2023/10/25 13:08:07;;;;;;;0.30;0.20;;;16.80;99.90;;;;;;4976851;28;20182;-70
2023/10/25 13:10:33;;;;;;;0.30;0.20;;;16.70;99.90;;;;;;4976998;28;20204;-68
2023/10/25 13:12:58;;;;;;;0.30;0.30;;;16.70;99.90;;;;;;4977212;28;20418;-70
2023/10/25 13:15:24;;;;;;;0.30;0.20;;;16.70;99.90;;;;;;4976741;28;20722;-71
2023/10/25 13:17:49;;;;;;;0.30;0.30;;;16.80;99.90;;;;;;4977000;28;20179;-72
2023/10/25 13:20:17;;;;;;;0.30;0.20;;;16.90;99.90;;;;;;4977005;28;20254;-69
2023/10/25 13:22:43;;;;;;;0.30;0.30;;;17.00;99.90;;;;;;4976918;28;20203;-67
2023/10/25 13:25:09;;;;;;;0.30;0.20;;;17.00;99.90;;;;;;4976033;28;20462;-69
2023/10/25 13:27:35;;;;;;;0.30;0.20;;;17.10;99.90;;;;;;4959420;28;20176;-68
2023/10/25 13:30:05;;;;;;;0.30;0.20;;;17.20;99.90;;;;;;4976612;28;20165;-67
2023/10/25 13:32:31;;;;;;;0.30;0.20;;;17.30;99.90;;;;;;4973799;28;20477;-66
2023/10/25 13:34:56;;;;;;;0.30;0.30;;;17.40;99.90;;;;;;4976247;28;20535;-66
2023/10/25 13:37:22;;;;;;;0.30;0.30;;;17.40;99.90;;;;;;4976619;28;20174;-68
2023/10/25 13:39:48;;;;;;;0.30;0.20;;;17.40;99.90;;;;;;4986994;28;20183;-66
2023/10/25 13:42:14;;;;;;;0.30;0.20;;;17.40;99.90;;;;;;4995995;28;20206;-66
2023/10/25 13:44:39;;;;;;;0.30;0.20;;;17.30;99.90;;;;;;4976862;28;20381;-66
2023/10/25 13:47:05;;;;;;;0.30;0.30;;;17.30;99.90;;;;;;4994189;28;20309;-66
2023/10/25 13:49:31;;;;;;;0.30;0.30;;;17.20;99.90;;;;;;4994232;28;20465;-66
2023/10/25 13:51:57;;;;;;;0.30;0.30;;;17.20;99.90;;;;;;4994927;28;20397;-65
2023/10/25 13:54:22;;;;;;;0.30;0.20;;;17.20;99.90;;;;;;4994379;28;20172;-66
2023/10/25 13:56:48;;;;;;;0.30;0.20;;;17.20;99.90;;;;;;4994433;28;20264;-67
2023/10/25 13:59:14;;;;;;;0.30;0.20;;;17.20;99.90;;;;;;4994358;28;20181;-66
2023/10/25 14:01:42;;;;;;;0.30;0.30;;;17.20;99.90;;;;;;4995519;28;20205;-66
2023/10/25 14:04:09;;;;;;;0.30;0.30;;;17.20;99.90;;;;;;4995581;28;20409;-66
2023/10/25 14:06:36;;;;;;;0.30;0.20;;;17.30;99.90;;;;;;4995574;28;20442;-66
2023/10/25 14:09:02;;;;;;;0.30;0.30;;;17.30;99.90;;;;;;4978195;28;20429;-66
2023/10/25 14:11:27;;;;;;;0.30;0.30;;;17.30;99.90;;;;;;4995433;28;20407;-66
2023/10/25 14:13:54;;;;;;;0.30;0.30;;;17.20;99.90;;;;;;4995273;28;20459;-65
2023/10/25 14:16:20;;;;;;;0.30;0.20;;;17.30;99.90;;;;;;4995303;28;20696;-65
2023/10/25 14:18:45;;;;;;;0.30;0.20;;;17.30;99.90;;;;;;4995539;28;20393;-66
2023/10/25 14:21:11;;;;;;;0.30;0.27;;;17.30;99.90;;;;;;4977666;28;20231;-66
2023/10/25 14:23:37;;;;;;;0.30;0.30;;;17.30;99.90;;;;;;4995432;28;20199;-65
2023/10/25 14:26:04;;;;;;;0.30;0.30;;;17.30;99.90;;;;;;4994989;28;20424;-66
2023/10/25 14:28:30;;;;;;;0.30;0.30;;;17.30;99.90;;;;;;4995296;28;20625;-65
2023/10/25 14:30:56;;;;;;;0.30;0.20;;;17.20;99.90;;;;;;4995154;28;20396;-65
2023/10/25 14:33:21;;;;;;;0.30;0.30;;;17.20;99.90;;;;;;4995161;28;20468;-66
2023/10/25 14:35:47;;;;;;;0.30;0.30;;;17.20;99.90;;;;;;4994279;28;20187;-65
2023/10/25 14:38:12;;;;;;;0.30;0.30;;;17.20;99.90;;;;;;4995068;28;20529;-64
2023/10/25 14:40:40;;;;;;;0.30;0.30;;;17.10;99.90;;;;;;4994777;28;20174;-65
2023/10/25 14:43:07;;;;;;;0.30;0.30;;;17.00;99.90;;;;;;4994889;28;20221;-66
2023/10/25 14:45:36;;;;;;;0.30;0.20;;;16.90;99.90;;;;;;4994606;28;20412;-66
2023/10/25 14:48:03;;;;;;;0.30;0.30;;;16.90;99.90;;;;;;4994799;28;20426;-66
2023/10/25 14:50:38;;;;;;;0.30;0.30;;;16.90;99.90;;;;;;4994880;28;20404;-68
2023/10/25 14:53:04;;;;;;;0.30;0.30;;;16.70;99.90;;;;;;4994981;28;20391;-65
2023/10/25 14:55:34;;;;;;;0.30;0.30;;;16.60;99.90;;;;;;4994598;28;20909;-66
2023/10/25 14:58:00;;;;;;;0.30;0.27;;;16.60;99.90;;;;;;4994755;28;20491;-65
2023/10/25 15:00:25;;;;;;;0.30;0.30;;;16.50;99.90;;;;;;4977184;28;20423;-64
2023/10/25 15:02:52;;;;;;;0.30;0.30;;;16.40;99.90;;;;;;4994590;28;20551;-66
2023/10/25 15:05:18;;;;;;;0.30;0.20;;;16.40;99.90;;;;;;4994200;28;20768;-66
2023/10/25 15:07:47;;;;;;;0.30;0.30;;;16.30;99.90;;;;;;4994205;28;20427;-66
2023/10/25 15:10:12;;;;;;;0.40;0.40;;;16.20;99.90;;;;;;4977053;28;20416;-65
2023/10/25 15:12:40;;;;;;;0.30;0.20;;;16.20;99.90;;;;;;4994473;28;20434;-66
2023/10/25 15:15:07;;;;;;;0.30;0.30;;;16.10;99.90;;;;;;4993945;28;20715;-65
2023/10/25 15:17:33;;;;;;;0.30;0.20;;;16.00;99.90;;;;;;4994419;28;20917;-66
2023/10/25 15:19:58;;;;;;;0.30;0.30;;;16.00;99.90;;;;;;4994345;28;20382;-65
2023/10/25 15:22:24;;;;;;;0.30;0.30;;;16.00;99.90;;;;;;4994019;28;20209;-66
2023/10/25 15:24:49;;;;;;;0.30;0.20;;;15.90;99.90;;;;;;4993898;28;20171;-66
2023/10/25 15:27:17;;;;;;;0.30;0.30;;;15.90;99.90;;;;;;4994114;28;20558;-66
2023/10/25 15:29:48;;;;;;;0.30;0.30;;;15.90;99.90;;;;;;4994316;28;20654;-65
2023/10/25 15:32:16;;;;;;;0.30;0.20;;;15.90;99.90;;;;;;4994031;28;20418;-66
2023/10/25 15:34:42;;;;;;;0.30;0.30;;;15.80;99.90;;;;;;4993748;28;20410;-67
2023/10/25 15:37:08;;;;;;;0.30;0.30;;;15.90;99.90;;;;;;4994042;28;20783;-66
2023/10/25 15:39:34;;;;;;;0.30;0.20;;;15.80;99.90;;;;;;4994143;28;20393;-66
2023/10/25 15:42:02;;;;;;;0.30;0.30;;;15.70;99.90;;;;;;4994131;28;20550;-67
2023/10/25 15:44:28;;;;;;;0.30;0.30;;;15.40;99.90;;;;;;4993700;28;20170;-65
2023/10/25 15:46:54;;;;;;;0.30;0.30;;;15.10;99.90;;;;;;4976099;28;20940;-68
2023/10/25 15:49:19;;;;;;;0.30;0.20;;;14.80;99.90;;;;;;4976461;28;20180;-68
2023/10/25 15:51:45;;;;;;;0.30;0.30;;;14.60;99.90;;;;;;4993885;28;20225;-68
2023/10/25 15:54:10;;;;;;;0.30;0.30;;;14.40;99.90;;;;;;4993463;28;20226;-67
2023/10/25 15:56:36;;;;;;;0.30;0.30;;;14.20;99.90;;;;;;4994019;28;20195;-67
2023/10/25 15:59:03;;;;;;;0.30;0.20;;;14.10;99.90;;;;;;4994070;28;20521;-67
2023/10/25 16:01:29;;;;;;;0.30;0.30;;;14.00;99.90;;;;;;4993748;28;20453;-67
2023/10/25 16:03:54;;;;;;;0.30;0.20;;;13.80;99.90;;;;;;4993405;28;20412;-69
2023/10/25 16:06:20;;;;;;;0.30;0.30;;;13.70;99.90;;;;;;4993644;28;20201;-68
2023/10/25 16:08:46;;;;;;;0.30;0.30;;;13.60;99.90;;;;;;4993882;28;20636;-67
2023/10/25 16:11:13;;;;;;;0.30;0.30;;;13.60;99.90;;;;;;4993774;28;20179;-66
2023/10/25 16:13:39;;;;;;;0.30;0.30;;;13.50;99.90;;;;;;4993509;28;20446;-67
2023/10/25 16:16:09;;;;;;;0.30;0.30;;;13.40;99.90;;;;;;4993051;28;20463;-64
2023/10/25 16:18:35;;;;;;;0.30;0.30;;;13.30;99.90;;;;;;4976152;28;20175;-63
2023/10/25 16:21:05;;;;;;;0.30;0.30;;;13.30;99.90;;;;;;4993732;28;20789;-62
2023/10/25 16:23:32;;;;;;;0.30;0.30;;;13.20;99.90;;;;;;4993263;28;20409;-61
2023/10/25 16:25:58;;;;;;;0.30;0.20;;;13.20;99.90;;;;;;4992934;28;20429;-62
2023/10/25 16:28:24;;;;;;;0.30;0.20;;;13.10;99.90;;;;;;4993781;28;20747;-67
2023/10/25 16:30:49;;;;;;;0.30;0.30;;;13.10;99.90;;;;;;4976127;28;20476;-67
2023/10/25 16:33:15;;;;;;;0.30;0.30;;;13.00;99.90;;;;;;4991615;28;20198;-66
2023/10/25 16:35:41;;;;;;;0.30;0.27;;;13.00;99.90;;;;;;4989105;28;20203;-70
2023/10/25 16:38:10;;;;;;;0.30;0.20;;;13.00;99.90;;;;;;4992582;28;20217;-66
2023/10/25 16:40:36;;;;;;;0.30;0.20;;;13.00;99.90;;;;;;4993388;28;20202;-66
2023/10/25 16:43:05;;;;;;;0.30;0.30;;;13.00;99.90;;;;;;4992898;28;20515;-69
2023/10/25 16:45:34;;;;;;;0.40;0.40;;;13.00;99.90;;;;;;4992110;28;20448;-69
2023/10/25 16:48:01;;;;;;;0.30;0.30;;;13.00;99.90;;;;;;4989639;28;20396;-66
2023/10/25 16:50:28;;;;;;;0.30;0.30;;;13.00;99.90;;;;;;4973473;28;20456;-68
2023/10/25 16:52:54;;;;;;;0.30;0.30;;;13.00;99.90;;;;;;4990773;28;20430;-69
2023/10/25 16:55:19;;;;;;;0.30;0.30;;;13.00;99.90;;;;;;4990477;28;20519;-68
2023/10/25 16:57:45;;;;;;;0.30;0.30;;;12.90;99.90;;;;;;4989546;28;20179;-67